Time;durP1;ratioP1;P1;durP2;ratioP2;P2;SDS_P1;SDS_P2;PMS_P1;PMS_P2;Temp;Humidity;BMP_temperature;BMP_pressure;BME280_temperature;BME280_humidity;BME280_pressure;Samples;Min_cycle;Max_cycle;Signal;HPM_P1;HPM_P2
2022/11/14 00:02:12;;;;;;;36.15;19.30;;;;;;;8.92;87.32;101080.28;5105692;28;20031;-69
2022/11/14 00:04:38;;;;;;;38.20;19.48;;;;;;;8.85;87.21;101081.72;5105863;28;20039;-68
2022/11/14 00:07:03;;;;;;;39.50;21.20;;;;;;;8.78;87.58;101088.44;5105245;28;20084;-69
2022/11/14 00:09:29;;;;;;;36.08;18.67;;;;;;;8.62;88.48;101074.72;5106024;28;20395;-68
2022/11/14 00:11:54;;;;;;;34.55;19.17;;;;;;;8.70;88.40;101088.19;5105840;28;20099;-69
2022/11/14 00:14:20;;;;;;;35.97;19.13;;;;;;;8.75;87.99;101082.56;5105415;28;20103;-68
2022/11/14 00:16:46;;;;;;;33.38;18.48;;;;;;;8.76;87.63;101077.16;5104565;28;20077;-70
2022/11/14 00:19:12;;;;;;;34.20;19.42;;;;;;;8.76;87.67;101069.22;5105959;28;20039;-70
2022/11/14 00:21:38;;;;;;;34.25;18.70;;;;;;;8.76;87.56;101073.69;5106670;28;20054;-69
2022/11/14 00:24:04;;;;;;;33.63;18.20;;;;;;;8.79;87.39;101060.22;5109469;28;20040;-68
2022/11/14 00:26:29;;;;;;;29.98;17.90;;;;;;;8.77;87.06;101051.59;5104419;28;20032;-69
2022/11/14 00:28:55;;;;;;;31.75;18.73;;;;;;;8.77;87.30;101059.50;5104877;28;20078;-69
2022/11/14 00:31:21;;;;;;;36.53;18.60;;;;;;;8.86;86.78;101056.16;5108388;28;20046;-70
2022/11/14 00:33:47;;;;;;;34.35;19.23;;;;;;;8.82;86.30;101058.19;5106464;28;20067;-70
2022/11/14 00:36:12;;;;;;;32.53;18.92;;;;;;;8.74;86.30;101052.66;5103351;28;20028;-68
2022/11/14 00:38:38;;;;;;;34.58;18.40;;;;;;;8.63;87.03;101050.00;5104384;28;20435;-69
2022/11/14 00:41:03;;;;;;;34.05;18.23;;;;;;;8.69;87.06;101048.69;5102793;28;20081;-68
2022/11/14 00:43:29;;;;;;;34.75;17.98;;;;;;;8.70;86.68;101058.31;5104397;28;20110;-69
2022/11/14 00:45:54;;;;;;;39.10;18.05;;;;;;;8.54;86.66;101051.56;5107331;28;20039;-70
2022/11/14 00:48:20;;;;;;;31.00;16.90;;;;;;;8.52;87.78;101053.47;5086289;28;20114;-70
2022/11/14 00:50:46;;;;;;;36.60;18.92;;;;;;;8.18;88.75;101046.34;5106551;28;20324;-68
2022/11/14 00:53:12;;;;;;;38.10;19.08;;;;;;;8.40;88.63;101043.00;5107518;28;20028;-69
2022/11/14 00:55:37;;;;;;;39.70;19.67;;;;;;;8.48;88.28;101048.53;5105945;28;20095;-69
2022/11/14 00:58:03;;;;;;;30.58;18.58;;;;;;;8.45;87.90;101046.13;5104889;28;20034;-68
2022/11/14 01:00:28;;;;;;;34.60;19.27;;;;;;;8.28;89.13;101032.34;5106103;28;20019;-70
2022/11/14 01:02:55;;;;;;;32.83;17.98;;;;;;;8.39;89.48;101042.16;5103640;28;20046;-70
2022/11/14 01:05:22;;;;;;;37.75;19.63;;;;;;;8.49;89.75;101034.38;5107862;28;20032;-69
2022/11/14 01:07:48;;;;;;;36.40;19.80;;;;;;;8.44;90.47;101033.91;5105272;28;20032;-68
2022/11/14 01:10:15;;;;;;;37.63;19.63;;;;;;;8.52;90.25;101024.44;5103557;28;20054;-68
2022/11/14 01:12:40;;;;;;;38.78;21.00;;;;;;;8.72;88.72;101035.25;5106136;28;20079;-69
2022/11/14 01:15:06;;;;;;;47.53;23.65;;;;;;;8.83;88.52;101035.25;5106993;28;20016;-70
2022/11/14 01:17:32;;;;;;;38.38;20.13;;;;;;;8.84;88.10;101032.50;5106891;28;20314;-70
2022/11/14 01:19:57;;;;;;;37.40;19.85;;;;;;;8.62;89.01;101028.03;5102921;28;20038;-69
2022/11/14 01:22:23;;;;;;;36.53;19.73;;;;;;;8.79;88.19;101034.66;5104363;28;20032;-69
2022/11/14 01:24:48;;;;;;;35.00;20.35;;;;;;;8.67;89.29;101026.84;5104567;28;20239;-69
2022/11/14 01:27:14;;;;;;;37.67;19.20;;;;;;;8.72;89.32;101020.25;5104889;28;20016;-70
2022/11/14 01:29:39;;;;;;;35.38;18.92;;;;;;;8.77;88.59;101019.91;5105849;28;20069;-70
2022/11/14 01:32:05;;;;;;;33.63;19.63;;;;;;;8.82;88.13;101018.56;5104653;28;20060;-69
2022/11/14 01:34:30;;;;;;;37.97;21.23;;;;;;;8.48;88.51;101025.63;5104709;28;20333;-68
2022/11/14 01:36:56;;;;;;;37.33;20.52;;;;;;;8.59;88.80;101027.44;5103757;28;20065;-68
2022/11/14 01:39:21;;;;;;;36.97;20.70;;;;;;;8.49;88.80;101018.53;5104083;28;20226;-69
2022/11/14 01:41:47;;;;;;;37.15;20.25;;;;;;;8.48;88.29;101016.88;5105519;28;20098;-70
2022/11/14 01:44:36;;;;;;;37.40;20.25;;;;;;;8.42;89.04;101012.91;5105211;28;20075;-70
2022/11/14 01:47:03;;;;;;;38.55;20.02;;;;;;;8.52;87.98;101013.88;5106886;28;20081;-69
2022/11/14 01:49:38;;;;;;;36.63;19.98;;;;;;;8.68;86.91;101010.88;5104433;28;20176;-68
2022/11/14 01:52:08;;;;;;;41.75;21.35;;;;;;;8.63;87.11;101010.41;5102651;28;20031;-69
2022/11/14 01:54:40;;;;;;;38.20;21.10;;;;;;;8.52;87.08;100994.56;5106910;28;20027;-70
2022/11/14 01:57:06;;;;;;;40.00;20.40;;;;;;;8.54;87.07;101009.31;5092948;28;20019;-70
2022/11/14 01:59:42;;;;;;;37.55;19.38;;;;;;;8.58;87.90;101009.91;5110276;28;20028;-68
2022/11/14 02:02:14;;;;;;;39.15;21.35;;;;;;;8.54;87.75;101001.41;5108561;28;20043;-68
2022/11/14 02:04:43;;;;;;;37.35;20.70;;;;;;;8.46;87.89;101002.94;5108226;28;20144;-69
2022/11/14 02:07:11;;;;;;;38.53;20.02;;;;;;;8.39;88.34;100986.75;5110769;28;20019;-70
2022/11/14 02:09:40;;;;;;;46.05;21.70;;;;;;;8.48;87.57;100985.19;5108598;28;20036;-70
2022/11/14 02:12:09;;;;;;;40.05;20.50;;;;;;;8.48;87.60;100993.94;5106111;28;20099;-70
2022/11/14 02:14:36;;;;;;;42.65;21.80;;;;;;;8.49;87.65;100993.00;5106632;28;20059;-68
2022/11/14 02:17:02;;;;;;;53.95;23.90;;;;;;;8.54;87.72;101000.56;5108469;28;20020;-69
2022/11/14 02:19:46;;;;;;;50.60;23.98;;;;;;;8.53;87.57;100993.59;5109527;28;20032;-70
2022/11/14 02:22:12;;;;;;;57.47;25.65;;;;;;;8.56;87.34;100996.00;5106880;28;20039;-70
2022/11/14 02:24:37;;;;;;;59.63;24.95;;;;;;;8.45;87.81;100994.19;5110248;28;20081;-70
2022/11/14 02:27:07;;;;;;;50.15;23.80;;;;;;;8.43;87.98;100997.91;5108833;28;20032;-69
2022/11/14 02:29:34;;;;;;;43.13;21.13;;;;;;;8.44;87.45;100996.94;5108128;28;20024;-69
2022/11/14 02:32:00;;;;;;;42.55;21.63;;;;;;;8.41;87.71;101000.66;5108626;28;20039;-69
2022/11/14 02:34:26;;;;;;;40.72;22.05;;;;;;;8.39;87.85;100994.66;5109549;28;20262;-70
2022/11/14 02:36:51;;;;;;;38.88;21.90;;;;;;;8.43;87.47;100996.09;5109270;28;20031;-70
2022/11/14 02:39:17;;;;;;;43.10;21.95;;;;;;;8.39;87.41;100992.03;5110198;28;20056;-69
2022/11/14 02:41:42;;;;;;;38.03;19.40;;;;;;;8.31;86.29;100995.19;5107221;28;20331;-68
2022/11/14 02:44:08;;;;;;;35.08;19.17;;;;;;;8.20;84.01;100989.03;5107366;28;20035;-69
2022/11/14 02:46:33;;;;;;;35.30;19.70;;;;;;;8.04;84.85;100992.00;5110877;28;20032;-69
2022/11/14 02:48:59;;;;;;;40.03;19.80;;;;;;;7.93;84.91;100992.81;5108286;28;20264;-70
2022/11/14 02:51:24;;;;;;;113.50;21.48;;;;;;;7.86;84.12;100988.09;5088090;28;20023;-70
2022/11/14 02:53:50;;;;;;;34.47;16.80;;;;;;;7.67;82.59;100988.63;5106200;28;20057;-68
2022/11/14 02:56:15;;;;;;;30.85;17.13;;;;;;;7.60;84.11;100997.94;5106789;28;20027;-68
2022/11/14 02:58:41;;;;;;;105.68;33.75;;;;;;;7.59;83.15;100983.06;5101407;28;20036;-69
2022/11/14 03:01:06;;;;;;;44.45;18.27;;;;;;;7.64;81.94;100994.13;5107525;28;20321;-70
2022/11/14 03:03:32;;;;;;;63.65;22.20;;;;;;;7.66;82.00;100992.22;5105861;28;20068;-70
2022/11/14 03:06:01;;;;;;;36.88;16.92;;;;;;;7.56;84.09;100991.22;5109105;28;20047;-69
2022/11/14 03:08:27;;;;;;;77.72;25.63;;;;;;;7.56;84.84;100996.47;5108102;28;20335;-68
2022/11/14 03:10:52;;;;;;;134.35;41.08;;;;;;;7.52;85.15;101002.94;5089211;28;20106;-68
2022/11/14 03:13:18;;;;;;;86.00;29.75;;;;;;;7.57;85.45;101000.78;5106342;28;20101;-70
2022/11/14 03:15:43;;;;;;;84.47;30.92;;;;;;;7.66;84.88;101000.97;5107650;28;20032;-70
2022/11/14 03:18:09;;;;;;;72.82;28.25;;;;;;;7.52;84.16;101000.28;5108313;28;20047;-70
2022/11/14 03:20:34;;;;;;;68.50;27.45;;;;;;;7.48;85.51;100997.03;5108073;28;20039;-68
2022/11/14 03:23:00;;;;;;;40.78;19.42;;;;;;;7.47;83.70;101000.63;5106606;28;20436;-69
2022/11/14 03:25:25;;;;;;;28.42;15.10;;;;;;;7.36;82.81;101001.41;5105234;28;20329;-69
2022/11/14 03:27:51;;;;;;;31.95;17.02;;;;;;;7.22;81.35;101009.44;5110030;28;20028;-70
2022/11/14 03:30:16;;;;;;;31.00;14.55;;;;;;;7.14;81.90;101003.03;5105314;28;20035;-70
2022/11/14 03:32:42;;;;;;;29.73;15.38;;;;;;;7.02;82.80;100994.19;5109907;28;20318;-68
2022/11/14 03:35:08;;;;;;;31.38;15.00;;;;;;;7.00;82.90;101007.47;5106607;28;20035;-68
2022/11/14 03:37:34;;;;;;;28.42;15.02;;;;;;;6.96;82.89;100999.91;5106831;28;20024;-68
2022/11/14 03:40:00;;;;;;;26.67;14.35;;;;;;;6.95;83.34;101006.97;5107697;28;20024;-69
2022/11/14 03:42:25;;;;;;;24.75;13.85;;;;;;;7.07;83.60;101004.41;5106213;28;20043;-70
2022/11/14 03:44:51;;;;;;;24.08;12.68;;;;;;;7.05;83.11;101000.09;5106626;28;20023;-70
2022/11/14 03:47:16;;;;;;;26.63;15.10;;;;;;;7.08;83.45;101009.56;5108586;28;20027;-69
2022/11/14 03:49:43;;;;;;;28.10;15.57;;;;;;;7.20;83.38;101002.59;5105096;28;20024;-68
2022/11/14 03:52:10;;;;;;;35.13;17.52;;;;;;;7.25;84.24;100987.28;5106332;28;20076;-69
2022/11/14 03:54:36;;;;;;;41.05;17.42;;;;;;;7.28;84.58;100990.56;5107521;28;20325;-70
2022/11/14 03:57:02;;;;;;;35.58;17.63;;;;;;;7.33;84.60;100987.59;5104460;28;20031;-70
2022/11/14 03:59:27;;;;;;;27.17;14.80;;;;;;;7.37;83.77;101002.25;5106418;28;20221;-69
2022/11/14 04:01:52;;;;;;;25.95;14.10;;;;;;;7.24;83.10;100988.25;5108745;28;20674;-69
2022/11/14 04:04:18;;;;;;;35.10;15.23;;;;;;;7.18;82.00;100991.31;5105460;28;20028;-69
2022/11/14 04:06:44;;;;;;;38.33;16.90;;;;;;;7.20;80.90;100987.63;5107220;28;20039;-70
2022/11/14 04:09:10;;;;;;;30.73;15.25;;;;;;;7.22;80.67;100996.25;5107548;28;20070;-70
2022/11/14 04:11:36;;;;;;;46.85;19.38;;;;;;;7.15;82.63;100992.38;5107045;28;20028;-70
2022/11/14 04:14:02;;;;;;;40.42;17.30;;;;;;;7.09;84.09;100987.53;5087348;28;20242;-69
2022/11/14 04:16:27;;;;;;;33.92;15.63;;;;;;;7.09;82.94;100984.06;5085861;28;20060;-69
2022/11/14 04:18:52;;;;;;;29.65;12.95;;;;;;;6.98;81.61;100992.75;5087924;28;20032;-70
2022/11/14 04:21:18;;;;;;;28.58;13.73;;;;;;;6.81;80.96;101004.47;5085858;28;20032;-70
2022/11/14 04:23:43;;;;;;;29.02;14.82;;;;;;;6.80;82.38;100996.66;5085708;28;20020;-70
2022/11/14 04:26:09;;;;;;;33.97;16.75;;;;;;;6.82;82.91;100997.41;5085736;28;20031;-68
2022/11/14 04:28:34;;;;;;;32.67;17.33;;;;;;;6.89;83.54;101001.28;5086645;28;20033;-69
2022/11/14 04:31:00;;;;;;;32.47;15.68;;;;;;;6.81;83.10;100972.88;5083892;28;20078;-69
2022/11/14 04:33:26;;;;;;;28.02;15.05;;;;;;;6.82;83.27;100998.25;5085620;28;20314;-70
2022/11/14 04:35:51;;;;;;;28.42;15.40;;;;;;;6.82;83.22;100992.97;5082838;28;20036;-70
2022/11/14 04:38:16;;;;;;;35.63;16.23;;;;;;;6.84;83.81;100996.34;5083913;28;20058;-69
2022/11/14 04:40:51;;;;;;;29.92;14.90;;;;;;;6.89;82.33;101003.91;5082405;28;20037;-68
2022/11/14 04:43:18;;;;;;;24.83;11.88;;;;;;;6.82;79.27;101003.50;5082277;28;20040;-69
2022/11/14 04:45:44;;;;;;;17.40;10.18;;;;;;;6.44;79.05;101000.91;5084131;28;20032;-70
2022/11/14 04:48:09;;;;;;;19.17;10.60;;;;;;;6.22;78.67;100996.22;5085395;28;20032;-70
2022/11/14 04:50:35;;;;;;;17.52;10.40;;;;;;;6.23;79.56;101005.78;5095043;28;20027;-70
2022/11/14 04:53:00;;;;;;;21.98;11.52;;;;;;;6.21;78.79;101015.56;5084562;28;20028;-68
2022/11/14 04:55:26;;;;;;;23.73;11.52;;;;;;;6.19;78.75;101011.38;5084427;28;20094;-69
2022/11/14 04:57:55;;;;;;;30.10;11.50;;;;;;;6.14;80.00;101013.47;5084302;28;20322;-70
2022/11/14 05:00:22;;;;;;;60.45;14.65;;;;;;;6.24;79.97;101018.03;5085145;28;20066;-70
2022/11/14 05:02:47;;;;;;;34.72;12.13;;;;;;;6.17;81.48;101024.63;5083564;28;20023;-70
2022/11/14 05:05:13;;;;;;;46.70;13.65;;;;;;;6.09;82.50;101016.41;5085870;28;20024;-68
2022/11/14 05:07:38;;;;;;;49.03;13.85;;;;;;;6.08;83.38;101017.34;5087344;28;20086;-69
2022/11/14 05:10:04;;;;;;;32.88;13.05;;;;;;;6.19;82.86;101021.88;5083788;28;20024;-69
2022/11/14 05:12:30;;;;;;;40.55;12.63;;;;;;;6.16;83.43;101024.72;5092565;28;20278;-70
2022/11/14 05:14:56;;;;;;;49.50;12.02;;;;;;;6.26;82.07;101024.03;5104179;28;20103;-70
2022/11/14 05:17:22;;;;;;;41.20;12.00;;;;;;;6.14;83.06;101030.09;5104522;28;20026;-69
2022/11/14 05:19:48;;;;;;;166.45;47.30;;;;;;;6.16;83.28;101025.56;5104196;28;20070;-69
2022/11/14 05:22:13;;;;;;;74.53;23.40;;;;;;;6.21;83.05;101030.50;5103870;28;20087;-68
2022/11/14 05:24:39;;;;;;;48.25;15.10;;;;;;;6.28;83.99;101021.31;5103796;28;20024;-70
2022/11/14 05:27:04;;;;;;;76.05;12.80;;;;;;;6.25;83.03;101026.75;5113228;28;20336;-70
2022/11/14 05:29:30;;;;;;;45.88;12.30;;;;;;;5.96;84.15;100994.50;5120220;28;20270;-68
2022/11/14 05:31:56;;;;;;;75.18;12.45;;;;;;;6.16;84.91;101024.72;5123288;28;20083;-68
2022/11/14 05:34:22;;;;;;;71.70;12.43;;;;;;;6.05;83.77;101031.53;5123145;28;20073;-69
2022/11/14 05:36:47;;;;;;;58.83;11.85;;;;;;;5.93;84.94;101036.75;5123329;28;20039;-69
2022/11/14 05:39:13;;;;;;;71.57;12.65;;;;;;;5.86;86.80;101035.44;5122950;28;20051;-70
2022/11/14 05:41:38;;;;;;;70.05;13.18;;;;;;;5.94;86.21;101035.81;5123137;28;20287;-68
2022/11/14 05:44:04;;;;;;;67.47;14.30;;;;;;;5.92;86.51;101045.59;5122807;28;20087;-68
2022/11/14 05:46:29;;;;;;;78.85;13.13;;;;;;;5.70;86.94;101054.84;5122826;28;20091;-68
2022/11/14 05:48:54;;;;;;;69.53;15.88;;;;;;;5.61;87.37;101046.72;5122922;28;20031;-70
2022/11/14 05:51:20;;;;;;;71.90;14.57;;;;;;;5.64;87.68;101054.41;5122699;28;20019;-70
2022/11/14 05:53:45;;;;;;;108.68;15.27;;;;;;;5.60;88.11;101048.50;5123107;28;20036;-70
2022/11/14 05:56:11;;;;;;;56.08;14.40;;;;;;;5.55;88.62;101041.84;5122677;28;20030;-68
2022/11/14 05:58:38;;;;;;;40.22;13.98;;;;;;;5.60;88.11;101048.50;5122807;28;20082;-68
2022/11/14 06:01:16;;;;;;;80.20;12.82;;;;;;;5.68;87.90;101048.84;5122998;28;20031;-69
2022/11/14 06:03:43;;;;;;;66.60;13.60;;;;;;;5.82;87.32;101047.09;5109763;28;20329;-70
2022/11/14 06:06:11;;;;;;;46.63;13.85;;;;;;;5.98;88.82;101038.16;5122953;28;20027;-70
2022/11/14 06:08:37;;;;;;;50.03;16.35;;;;;;;6.00;89.17;101044.16;5122557;28;20035;-68
2022/11/14 06:11:11;;;;;;;63.10;17.00;;;;;;;6.19;88.42;101046.41;5122979;28;20305;-69
2022/11/14 06:13:36;;;;;;;103.47;28.65;;;;;;;6.30;87.16;101046.56;5122431;28;20252;-69
2022/11/14 06:16:08;;;;;;;46.38;15.45;;;;;;;6.38;86.27;101054.78;5104556;28;20027;-70
2022/11/14 06:18:34;;;;;;;44.63;14.70;;;;;;;6.28;87.25;101048.44;5104456;28;20031;-70
2022/11/14 06:21:01;;;;;;;36.67;13.93;;;;;;;6.18;87.63;101042.09;5104733;28;20054;-68
2022/11/14 06:23:27;;;;;;;33.67;14.73;;;;;;;6.20;86.62;101052.50;5103374;28;20091;-68
2022/11/14 06:26:04;;;;;;;40.85;15.90;;;;;;;6.17;87.33;101050.06;5103900;28;20260;-68
2022/11/14 06:28:30;;;;;;;36.40;15.00;;;;;;;6.20;88.13;101050.72;5098897;28;20046;-70
2022/11/14 06:31:00;;;;;;;40.25;15.88;;;;;;;6.38;87.15;101056.56;5103492;28;20040;-70
2022/11/14 06:33:35;;;;;;;34.10;16.27;;;;;;;6.50;86.64;101047.00;5104121;28;20046;-68
2022/11/14 06:36:03;;;;;;;36.70;14.90;;;;;;;6.69;87.46;101057.97;5103572;28;20055;-68
2022/11/14 06:38:34;;;;;;;34.95;18.05;;;;;;;6.70;86.19;101046.47;5104360;28;20038;-69
2022/11/14 06:41:05;;;;;;;38.38;19.42;;;;;;;6.64;85.68;101020.56;5108485;28;20027;-70
2022/11/14 06:43:33;;;;;;;43.78;16.23;;;;;;;6.74;85.59;101055.84;5107285;28;20235;-70
2022/11/14 06:45:58;;;;;;;38.17;16.40;;;;;;;6.69;87.23;101055.31;5106677;28;20138;-68
2022/11/14 06:48:24;;;;;;;45.53;20.65;;;;;;;6.83;86.84;101057.84;5105417;28;20028;-67
2022/11/14 06:50:54;;;;;;;52.22;19.17;;;;;;;7.01;86.02;101053.09;5104249;28;20031;-70
2022/11/14 06:53:19;;;;;;;45.30;17.02;;;;;;;7.00;86.53;101054.03;5106565;28;20350;-70
2022/11/14 06:55:56;;;;;;;36.60;18.05;;;;;;;7.22;86.34;101048.94;5107057;28;20028;-70
2022/11/14 06:58:25;;;;;;;36.42;16.98;;;;;;;7.27;86.63;101053.88;5106970;28;20264;-69
2022/11/14 07:00:50;;;;;;;40.45;17.75;;;;;;;7.35;85.07;101048.94;5104179;28;20272;-68
2022/11/14 07:03:16;;;;;;;32.05;17.17;;;;;;;7.19;86.66;101050.94;5092882;28;20092;-70
2022/11/14 07:05:41;;;;;;;40.88;15.95;;;;;;;6.88;87.77;101008.34;5124469;28;20032;-70
2022/11/14 07:08:06;;;;;;;31.67;17.98;;;;;;;7.11;89.72;101045.38;5119936;28;20036;-70
2022/11/14 07:10:32;;;;;;;34.47;16.63;;;;;;;7.38;88.76;101045.25;5106755;28;20353;-69
2022/11/14 07:12:57;;;;;;;41.33;18.48;;;;;;;7.46;87.83;101046.38;5105641;28;20036;-69
2022/11/14 07:15:23;;;;;;;58.67;30.00;;;;;;;7.63;87.13;101045.16;5107413;28;20329;-69
2022/11/14 07:17:48;;;;;;;41.88;21.55;;;;;;;7.57;87.38;101038.53;5107603;28;20210;-70
2022/11/14 07:20:17;;;;;;;73.00;45.67;;;;;;;7.68;87.10;101045.66;5105817;28;20050;-70
2022/11/14 07:22:44;;;;;;;47.92;31.60;;;;;;;7.51;87.94;101051.31;5107156;28;20095;-70
2022/11/14 07:25:10;;;;;;;43.35;25.50;;;;;;;7.72;87.94;101049.75;5108255;28;20035;-69
2022/11/14 07:27:35;;;;;;;26.48;13.52;;;;;;;7.59;88.05;101039.28;5106266;28;20036;-69
2022/11/14 07:30:01;;;;;;;30.10;16.90;;;;;;;7.76;88.15;101047.75;5107554;28;20024;-70
2022/11/14 07:32:26;;;;;;;23.05;17.08;;;;;;;7.79;89.55;101043.09;5106914;28;20066;-70
2022/11/14 07:34:52;;;;;;;27.40;15.10;;;;;;;7.94;88.12;101034.03;5106616;28;20195;-70
2022/11/14 07:37:17;;;;;;;17.45;10.45;;;;;;;8.19;88.04;101045.41;5109179;28;20059;-68
2022/11/14 07:39:42;;;;;;;17.33;10.57;;;;;;;8.37;87.97;101041.44;5105847;28;20035;-69
2022/11/14 07:42:08;;;;;;;16.98;11.50;;;;;;;8.57;87.17;101043.41;5106575;28;20320;-69
2022/11/14 07:44:33;;;;;;;23.73;12.13;;;;;;;8.66;86.09;101048.94;5108617;28;20027;-70
2022/11/14 07:46:59;;;;;;;24.33;13.70;;;;;;;8.66;86.55;101039.22;5105016;28;20067;-70
2022/11/14 07:49:24;;;;;;;22.63;13.40;;;;;;;8.84;86.73;101036.94;5106507;28;20028;-69
2022/11/14 07:51:50;;;;;;;26.25;15.23;;;;;;;8.96;86.95;101046.56;5107345;28;20311;-69
2022/11/14 07:54:15;;;;;;;32.00;16.40;;;;;;;9.02;86.56;101039.94;5103995;28;20024;-69
2022/11/14 07:56:41;;;;;;;33.17;19.27;;;;;;;9.06;86.32;101036.94;5108068;28;20089;-70
2022/11/14 07:59:06;;;;;;;43.03;20.75;;;;;;;9.17;87.17;101041.38;5104207;28;20036;-70
2022/11/14 08:01:31;;;;;;;42.30;22.42;;;;;;;9.31;87.09;101042.94;5105506;28;20034;-70
2022/11/14 08:03:57;;;;;;;55.65;24.88;;;;;;;9.19;86.95;101048.22;5106382;28;20039;-70
2022/11/14 08:06:22;;;;;;;60.13;25.13;;;;;;;9.07;87.01;101045.72;5106578;28;20024;-69
2022/11/14 08:08:48;;;;;;;50.03;25.45;;;;;;;9.09;87.22;101041.16;5108592;28;20038;-69
2022/11/14 08:11:13;;;;;;;46.35;25.15;;;;;;;9.31;86.30;101043.78;5106304;28;20028;-70
2022/11/14 08:13:39;;;;;;;44.97;23.85;;;;;;;9.50;85.84;101046.66;5105386;28;20348;-70
2022/11/14 08:16:06;;;;;;;49.40;25.85;;;;;;;9.33;86.53;101036.56;5105618;28;20059;-70
2022/11/14 08:18:31;;;;;;;58.28;25.08;;;;;;;9.65;86.52;101033.16;5104205;28;20074;-69
2022/11/14 08:20:58;;;;;;;49.15;26.40;;;;;;;9.91;85.89;101023.91;5103421;28;20028;-69
2022/11/14 08:23:23;;;;;;;44.70;24.45;;;;;;;10.18;85.25;101021.63;5107645;28;20037;-70
2022/11/14 08:25:49;;;;;;;43.83;24.17;;;;;;;10.27;85.58;101028.00;5106762;28;20028;-70
2022/11/14 08:28:14;;;;;;;45.55;24.95;;;;;;;10.32;85.37;101020.50;5109896;28;20058;-70
2022/11/14 08:30:40;;;;;;;46.80;26.75;;;;;;;10.44;86.28;101018.66;5105111;28;20074;-70
2022/11/14 08:33:06;;;;;;;45.05;25.83;;;;;;;10.53;85.02;101018.72;5106142;28;20028;-69
2022/11/14 08:35:32;;;;;;;46.97;25.75;;;;;;;10.31;85.23;101018.81;5108083;28;20031;-69
2022/11/14 08:37:59;;;;;;;47.60;25.30;;;;;;;10.51;86.38;101006.56;5105271;28;20056;-70
2022/11/14 08:40:24;;;;;;;49.20;25.10;;;;;;;10.61;86.33;101019.88;5104865;28;20062;-71
2022/11/14 08:42:50;;;;;;;42.95;26.05;;;;;;;10.77;85.78;101018.41;5105669;28;20081;-70
2022/11/14 08:45:16;;;;;;;41.63;23.70;;;;;;;10.92;83.99;101018.06;5103065;28;20026;-69
2022/11/14 08:47:41;;;;;;;58.10;27.75;;;;;;;10.81;84.38;101019.00;5106786;28;20028;-69
2022/11/14 08:50:07;;;;;;;45.78;26.67;;;;;;;11.00;85.10;101027.03;5103893;28;20050;-70
2022/11/14 08:52:32;;;;;;;56.88;27.17;;;;;;;11.07;85.51;101019.38;5106049;28;20059;-70
2022/11/14 08:54:58;;;;;;;44.97;25.23;;;;;;;11.18;84.96;101013.97;5090325;28;20396;-70
2022/11/14 08:57:23;;;;;;;48.13;26.15;;;;;;;11.18;85.99;101009.50;5105242;28;20054;-70
2022/11/14 08:59:49;;;;;;;46.22;25.23;;;;;;;11.19;87.64;101008.53;5104037;28;20036;-69
2022/11/14 09:02:14;;;;;;;51.92;26.17;;;;;;;11.16;86.64;101010.63;5105988;28;20735;-70
2022/11/14 09:04:40;;;;;;;44.88;25.58;;;;;;;11.18;86.94;100998.06;5106352;28;20058;-70
2022/11/14 09:07:06;;;;;;;47.28;26.95;;;;;;;11.10;87.55;101001.38;5103189;28;20190;-70
2022/11/14 09:09:32;;;;;;;46.72;26.17;;;;;;;11.06;87.18;100997.34;5104606;28;20279;-69
2022/11/14 09:11:58;;;;;;;46.70;25.95;;;;;;;11.11;88.16;101000.41;5104248;28;20060;-69
2022/11/14 09:14:23;;;;;;;45.60;25.75;;;;;;;11.01;89.07;100986.28;5106152;28;20044;-70
2022/11/14 09:16:49;;;;;;;46.10;25.33;;;;;;;11.13;88.90;100982.56;5106183;28;20024;-70
2022/11/14 09:19:14;;;;;;;45.33;25.52;;;;;;;11.31;87.74;100985.41;5105049;28;20195;-70
2022/11/14 09:21:40;;;;;;;40.67;24.10;;;;;;;11.58;86.77;100968.00;5106416;28;20344;-70
2022/11/14 09:24:06;;;;;;;42.28;24.20;;;;;;;11.70;86.68;100982.81;5103264;28;20055;-69
2022/11/14 09:26:31;;;;;;;40.97;23.77;;;;;;;11.60;87.97;100964.25;5106516;28;20026;-70
2022/11/14 09:28:57;;;;;;;47.83;24.55;;;;;;;11.83;86.81;100967.50;5104245;28;20062;-70
2022/11/14 09:31:23;;;;;;;50.95;24.92;;;;;;;12.06;84.95;100963.56;5103530;28;20028;-70
2022/11/14 09:33:48;;;;;;;43.20;25.50;;;;;;;12.05;86.23;100967.19;5105049;28;20035;-70
2022/11/14 09:36:14;;;;;;;45.20;24.40;;;;;;;11.78;86.85;100965.25;5101385;28;20199;-69
2022/11/14 09:38:42;;;;;;;49.13;24.63;;;;;;;11.64;86.97;100954.19;5107440;28;20027;-69
2022/11/14 09:41:07;;;;;;;54.47;25.15;;;;;;;11.95;86.03;100954.91;5105462;28;20125;-69
2022/11/14 09:43:57;;;;;;;46.08;24.67;;;;;;;12.05;86.47;100947.78;5104978;28;20045;-70
2022/11/14 09:46:29;;;;;;;43.17;24.15;;;;;;;12.12;87.39;100943.56;5104263;28;20040;-70
2022/11/14 09:48:55;;;;;;;42.35;24.38;;;;;;;12.16;86.36;100939.63;5105170;28;20020;-70
2022/11/14 09:51:32;;;;;;;41.60;24.02;;;;;;;12.41;87.11;100946.16;5105380;28;20270;-70
2022/11/14 09:54:24;;;;;;;42.08;23.13;;;;;;;12.45;85.54;100936.91;5103862;28;20205;-69
2022/11/14 09:56:50;;;;;;;45.22;22.58;;;;;;;12.25;85.66;100932.63;5106863;28;20024;-69
2022/11/14 09:59:16;;;;;;;37.88;22.15;;;;;;;12.33;85.13;100930.94;5103852;28;20035;-70
2022/11/14 10:01:56;;;;;;;37.75;23.10;;;;;;;12.52;84.85;100934.53;5107327;28;20408;-70
2022/11/14 10:05:00;;;;;;;46.00;22.90;;;;;;;12.54;83.80;100930.75;5103511;28;20024;-70
2022/11/14 10:08:03;;;;;;;35.63;21.98;;;;;;;12.43;84.18;100921.13;5066455;28;20047;-69
2022/11/14 10:10:52;;;;;;;38.58;21.48;;;;;;;12.60;83.15;100914.22;5076375;28;20027;-70
2022/11/14 10:13:41;;;;;;;35.83;20.13;;;;;;;12.58;82.61;100907.38;5059019;28;20044;-70
2022/11/14 10:16:13;;;;;;;35.85;21.75;;;;;;;12.67;81.59;100904.69;5109272;28;20043;-70
2022/11/14 10:18:53;;;;;;;33.03;19.25;;;;;;;12.56;81.23;100907.53;5109499;28;20028;-70
2022/11/14 10:21:25;;;;;;;36.13;19.77;;;;;;;12.58;79.92;100904.72;5109600;28;20036;-69
2022/11/14 10:23:56;;;;;;;37.58;20.58;;;;;;;12.61;80.68;100896.47;5106870;28;20044;-69
2022/11/14 10:26:30;;;;;;;34.53;20.00;;;;;;;12.61;80.20;100889.31;5107856;28;20047;-71
2022/11/14 10:29:21;;;;;;;40.58;21.95;;;;;;;12.55;80.69;100897.06;5107992;28;20034;-70
2022/11/14 10:32:24;;;;;;;42.08;22.92;;;;;;;12.65;81.70;100887.22;5110194;28;20032;-70
2022/11/14 10:35:02;;;;;;;44.03;23.48;;;;;;;12.85;81.67;100886.13;5092451;28;20024;-70
2022/11/14 10:37:58;;;;;;;41.22;23.80;;;;;;;12.94;82.08;100868.44;5108310;28;20024;-71
2022/11/14 10:40:30;;;;;;;37.53;23.83;;;;;;;12.84;82.78;100825.97;5108030;28;20024;-69
2022/11/14 10:43:17;;;;;;;44.92;25.55;;;;;;;13.03;82.14;100860.41;5109165;28;20019;-69
2022/11/14 10:45:49;;;;;;;51.25;26.38;;;;;;;12.63;83.46;100862.59;5109960;28;20429;-70
2022/11/14 10:48:24;;;;;;;45.45;25.42;;;;;;;12.48;83.96;100856.91;5109673;28;20202;-70
2022/11/14 10:50:56;;;;;;;42.50;25.77;;;;;;;12.74;83.37;100857.94;5108475;28;20394;-70
2022/11/14 10:53:47;;;;;;;49.00;26.55;;;;;;;12.79;83.48;100841.53;5108586;28;20040;-70
2022/11/14 10:56:13;;;;;;;41.85;26.70;;;;;;;12.91;82.38;100844.81;5108837;28;20218;-70
2022/11/14 10:58:40;;;;;;;38.80;22.33;;;;;;;12.97;82.04;100844.22;5108095;28;20032;-70
2022/11/14 11:01:38;;;;;;;40.83;22.73;;;;;;;13.07;82.30;100839.66;5106986;28;20098;-70
2022/11/14 11:04:30;;;;;;;43.28;24.45;;;;;;;12.99;81.86;100836.91;5107526;28;20031;-69
2022/11/14 11:07:06;;;;;;;40.90;23.13;;;;;;;13.04;81.66;100840.78;5110971;28;20153;-70
2022/11/14 11:12:37;;;;;;;35.80;20.55;;;;;;;13.09;82.13;100841.19;5106250;28;20054;-70
2022/11/14 11:15:11;;;;;;;32.67;19.73;;;;;;;13.08;82.69;100836.84;5108519;28;20222;-70
2022/11/14 11:17:42;;;;;;;36.53;20.25;;;;;;;13.19;81.84;100827.00;5108803;28;20039;-70
2022/11/14 11:21:00;;;;;;;53.10;26.65;;;;;;;13.03;81.81;100819.69;5108290;28;20321;-71
2022/11/14 11:23:26;;;;;;;35.92;20.17;;;;;;;13.10;82.79;100816.25;5056951;28;20136;-70